Time;durP1;ratioP1;P1;durP2;ratioP2;P2;SDS_P1;SDS_P2;PMS_P1;PMS_P2;Temp;Humidity;BMP_temperature;BMP_pressure;BME280_temperature;BME280_humidity;BME280_pressure;Samples;Min_cycle;Max_cycle;Signal;HPM_P1;HPM_P2
2024/02/02 00:01:18;;;;;;;24.33;7.37;;;6.40;99.90;;;;;;4991205;28;20310;-87
2024/02/02 00:03:43;;;;;;;18.53;7.30;;;6.40;99.90;;;;;;4985377;28;20203;-87
2024/02/02 00:06:09;;;;;;;16.50;6.23;;;6.40;1.00;;;;;;4991468;28;20207;-87
2024/02/02 00:08:35;;;;;;;22.23;7.17;;;6.40;1.00;;;;;;4989035;28;20215;-87
2024/02/02 00:11:00;;;;;;;24.50;7.70;;;6.40;99.90;;;;;;4990892;28;20188;-87
2024/02/02 00:13:26;;;;;;;17.77;6.80;;;6.40;1.00;;;;;;4984486;28;20878;-85
2024/02/02 00:15:54;;;;;;;21.93;7.73;;;6.30;1.00;;;;;;4990520;28;20709;-87
2024/02/02 00:18:20;;;;;;;15.07;6.30;;;6.30;44.40;;;;;;4990819;28;20214;-86
2024/02/02 00:20:46;;;;;;;17.20;6.80;;;6.40;27.20;;;;;;4991053;28;20188;-87
2024/02/02 00:23:11;;;;;;;17.20;7.10;;;6.30;99.90;;;;;;4989851;28;20443;-86
2024/02/02 00:25:37;;;;;;;23.67;6.60;;;6.30;99.90;;;;;;4990089;28;20191;-86
2024/02/02 00:28:02;;;;;;;23.00;7.93;;;6.30;1.00;;;;;;4985896;28;20216;-86
2024/02/02 00:30:34;;;;;;;24.40;7.70;;;6.30;1.00;;;;;;4989541;28;20654;-86
2024/02/02 00:33:03;;;;;;;15.57;6.82;;;6.30;1.00;;;;;;4994017;28;20194;-87
2024/02/02 00:35:28;;;;;;;22.00;7.50;;;6.30;1.00;;;;;;4992839;28;20705;-86
2024/02/02 00:37:55;;;;;;;19.83;7.27;;;6.40;1.00;;;;;;4994679;28;20302;-87
2024/02/02 00:40:20;;;;;;;19.70;6.78;;;6.40;1.00;;;;;;4993276;28;20632;-87
2024/02/02 00:42:46;;;;;;;17.77;6.63;;;6.40;99.90;;;;;;4993137;28;20184;-87
2024/02/02 00:45:11;;;;;;;17.03;6.53;;;6.40;99.90;;;;;;4994282;28;20677;-86
2024/02/02 00:47:37;;;;;;;17.70;7.37;;;6.40;1.00;;;;;;4990036;28;20219;-86
2024/02/02 00:50:05;;;;;;;21.70;7.37;;;6.40;1.00;;;;;;4993479;28;20611;-87
2024/02/02 00:52:33;;;;;;;25.55;7.82;;;6.40;99.90;;;;;;4993961;28;20998;-87
2024/02/02 00:54:59;;;;;;;20.45;6.38;;;6.40;99.90;;;;;;4992658;28;20184;-87
2024/02/02 00:57:25;;;;;;;23.23;7.75;;;6.40;99.90;;;;;;4994311;28;20192;-86
2024/02/02 00:59:52;;;;;;;12.53;5.70;;;6.40;1.00;;;;;;4989399;28;20188;-86
2024/02/02 01:02:18;;;;;;;17.33;6.57;;;6.40;1.00;;;;;;4982013;28;20331;-86
2024/02/02 01:04:44;;;;;;;30.05;7.38;;;6.40;1.00;;;;;;4993091;28;20196;-86
2024/02/02 01:07:09;;;;;;;25.20;7.43;;;6.40;1.00;;;;;;4994015;28;20207;-86
2024/02/02 01:09:36;;;;;;;29.47;7.43;;;6.40;99.90;;;;;;4989686;28;20205;-87
2024/02/02 01:12:02;;;;;;;21.08;7.00;;;6.50;99.90;;;;;;4993081;28;20188;-87
2024/02/02 01:14:28;;;;;;;24.10;7.40;;;6.40;99.90;;;;;;4989906;28;20191;-86
2024/02/02 01:16:53;;;;;;;21.57;8.27;;;6.50;99.90;;;;;;4988270;28;20966;-86
2024/02/02 01:19:20;;;;;;;26.83;7.30;;;6.50;1.00;;;;;;4991305;28;20220;-87
2024/02/02 01:21:46;;;;;;;21.67;7.40;;;6.50;1.00;;;;;;4994665;28;20826;-85
2024/02/02 01:24:11;;;;;;;30.43;7.10;;;6.50;1.00;;;;;;4989785;28;20184;-87
2024/02/02 01:26:37;;;;;;;25.10;6.77;;;6.50;1.00;;;;;;4993968;28;20195;-87
2024/02/02 01:29:02;;;;;;;16.87;6.57;;;6.60;1.00;;;;;;4987244;28;20607;-87
2024/02/02 01:31:28;;;;;;;24.73;7.20;;;6.60;1.00;;;;;;4989920;28;20222;-86
2024/02/02 01:33:53;;;;;;;23.47;7.00;;;6.60;1.00;;;;;;4991508;28;20211;-86
2024/02/02 01:36:19;;;;;;;18.97;6.20;;;6.60;1.00;;;;;;4994212;28;20191;-86
2024/02/02 01:38:50;;;;;;;15.87;6.90;;;6.60;1.00;;;;;;4988657;28;20243;-86
2024/02/02 01:41:18;;;;;;;18.40;6.13;;;6.60;1.00;;;;;;4993141;28;20676;-87
2024/02/02 01:43:44;;;;;;;20.83;7.28;;;6.60;1.00;;;;;;4993215;28;20561;-87
2024/02/02 01:46:13;;;;;;;27.48;7.30;;;6.60;1.00;;;;;;4988876;28;20200;-86
2024/02/02 01:48:38;;;;;;;23.02;7.05;;;6.60;1.00;;;;;;4991127;28;20220;-86
2024/02/02 01:51:05;;;;;;;26.70;7.20;;;6.60;1.00;;;;;;4992443;28;20641;-86
2024/02/02 01:53:31;;;;;;;14.18;5.95;;;6.60;1.00;;;;;;4991777;28;20284;-85
2024/02/02 01:55:57;;;;;;;30.73;7.88;;;6.60;1.00;;;;;;4990496;28;20604;-86
2024/02/02 01:58:23;;;;;;;14.60;6.68;;;6.60;1.00;;;;;;4991447;28;20261;-86
2024/02/02 02:00:48;;;;;;;28.00;7.03;;;6.70;1.00;;;;;;4992317;28;20267;-87
2024/02/02 02:03:14;;;;;;;22.90;7.30;;;6.70;1.00;;;;;;4993540;28;20259;-86
2024/02/02 02:05:40;;;;;;;21.60;7.10;;;6.70;1.00;;;;;;4993594;28;20861;-86
2024/02/02 02:08:06;;;;;;;31.40;7.00;;;6.60;1.00;;;;;;4991907;28;20242;-86
2024/02/02 02:10:32;;;;;;;23.90;7.38;;;6.60;1.00;;;;;;4990805;28;20451;-85
2024/02/02 02:12:58;;;;;;;17.80;5.63;;;6.60;1.00;;;;;;4993115;28;20192;-84
2024/02/02 02:15:24;;;;;;;20.60;6.10;;;6.60;1.00;;;;;;4989128;28;20432;-86
2024/02/02 02:17:51;;;;;;;27.93;6.83;;;6.70;1.00;;;;;;4987941;28;20204;-86
2024/02/02 02:20:21;;;;;;;15.55;6.32;;;6.70;1.00;;;;;;4988438;28;20458;-86
2024/02/02 02:22:46;;;;;;;21.33;6.60;;;6.70;1.00;;;;;;4991234;28;20191;-86
2024/02/02 02:25:12;;;;;;;21.30;7.70;;;6.70;99.90;;;;;;4992659;28;20573;-86
2024/02/02 02:27:38;;;;;;;21.87;6.17;;;6.70;99.90;;;;;;4991180;28;20306;-85
2024/02/02 02:30:04;;;;;;;22.73;6.67;;;6.70;99.90;;;;;;4992240;28;20186;-84
2024/02/02 02:32:29;;;;;;;20.38;6.10;;;6.70;99.90;;;;;;4994075;28;20190;-86
2024/02/02 02:34:56;;;;;;;28.30;7.67;;;6.70;50.30;;;;;;4992896;28;20184;-86
2024/02/02 02:37:21;;;;;;;29.02;6.90;;;6.80;1.00;;;;;;4984213;28;20196;-86
2024/02/02 02:39:47;;;;;;;14.07;6.23;;;6.80;1.00;;;;;;4990276;28;20185;-85
2024/02/02 02:42:12;;;;;;;20.93;6.47;;;6.80;99.90;;;;;;4993175;28;20237;-86
2024/02/02 02:44:38;;;;;;;25.83;7.60;;;6.80;99.90;;;;;;4992977;28;20654;-86
2024/02/02 02:47:04;;;;;;;18.00;6.13;;;6.80;51.60;;;;;;4987961;28;20200;-86
2024/02/02 02:49:29;;;;;;;19.40;6.30;;;6.80;99.90;;;;;;4993063;28;20215;-87
2024/02/02 02:51:58;;;;;;;18.70;7.10;;;6.80;99.90;;;;;;4991801;28;20466;-86
2024/02/02 02:54:23;;;;;;;18.05;5.80;;;6.80;99.90;;;;;;4991855;28;20191;-86
2024/02/02 02:56:49;;;;;;;32.83;6.87;;;6.80;99.90;;;;;;4991191;28;20180;-86
2024/02/02 02:59:16;;;;;;;19.50;6.20;;;6.80;99.90;;;;;;4992750;28;20232;-86
2024/02/02 03:01:43;;;;;;;23.83;7.20;;;6.80;14.80;;;;;;4990689;28;20870;-86
2024/02/02 03:04:09;;;;;;;23.23;6.72;;;6.80;99.90;;;;;;4991754;28;20570;-86
2024/02/02 03:06:34;;;;;;;22.73;7.60;;;6.80;94.50;;;;;;4991904;28;20184;-86
2024/02/02 03:09:00;;;;;;;18.20;7.80;;;6.70;1.00;;;;;;4991725;28;20474;-86
2024/02/02 03:11:26;;;;;;;24.80;7.00;;;6.70;38.60;;;;;;4992304;28;20187;-87
2024/02/02 03:13:51;;;;;;;21.17;6.30;;;6.70;96.60;;;;;;4988370;28;20260;-86
2024/02/02 03:16:17;;;;;;;23.13;6.27;;;6.70;99.90;;;;;;4991626;28;20712;-87
2024/02/02 03:18:42;;;;;;;28.93;7.60;;;6.70;99.90;;;;;;4991033;28;20259;-87
2024/02/02 03:21:08;;;;;;;26.80;7.20;;;6.70;1.00;;;;;;4992486;28;20637;-87
2024/02/02 03:23:34;;;;;;;20.97;7.20;;;6.70;1.00;;;;;;4985781;28;20230;-86
2024/02/02 03:25:59;;;;;;;27.13;8.70;;;6.70;1.00;;;;;;4989210;28;20196;-86
2024/02/02 03:28:25;;;;;;;22.73;8.10;;;6.70;71.20;;;;;;4984985;28;20219;-86
2024/02/02 03:30:51;;;;;;;26.40;7.80;;;6.70;1.00;;;;;;4990295;28;20658;-87
2024/02/02 03:33:19;;;;;;;23.07;7.50;;;6.70;49.60;;;;;;4990818;28;20258;-86
2024/02/02 03:35:44;;;;;;;16.95;6.53;;;6.70;99.90;;;;;;4991624;28;20215;-86
2024/02/02 03:38:10;;;;;;;24.20;7.43;;;6.70;99.90;;;;;;4990165;28;20247;-86
2024/02/02 03:40:36;;;;;;;29.27;7.00;;;6.70;99.90;;;;;;4983011;28;20721;-86
2024/02/02 03:43:01;;;;;;;19.73;7.83;;;6.80;42.60;;;;;;4988415;28;20184;-87
2024/02/02 03:45:27;;;;;;;21.67;7.90;;;6.80;1.00;;;;;;4990016;28;20234;-86
2024/02/02 03:47:53;;;;;;;22.27;7.73;;;6.80;23.70;;;;;;4989365;28;20222;-86
2024/02/02 03:50:18;;;;;;;18.57;6.60;;;6.80;1.00;;;;;;4986409;28;20191;-86
2024/02/02 03:52:44;;;;;;;23.73;7.40;;;6.80;1.00;;;;;;4986622;28;20182;-85
2024/02/02 03:55:10;;;;;;;14.80;6.20;;;6.80;1.00;;;;;;4991571;28;20192;-86
2024/02/02 03:57:36;;;;;;;17.77;6.72;;;6.80;1.00;;;;;;4984590;28;20180;-88
2024/02/02 04:00:04;;;;;;;23.03;7.87;;;6.80;1.00;;;;;;4991027;28;20184;-87
2024/02/02 04:02:30;;;;;;;24.55;7.65;;;6.70;1.00;;;;;;4989551;28;20219;-86
2024/02/02 04:04:55;;;;;;;30.73;8.10;;;6.70;99.90;;;;;;4982524;28;20224;-87
2024/02/02 04:07:21;;;;;;;26.67;8.20;;;6.70;99.90;;;;;;4991078;28;20666;-86
2024/02/02 04:09:46;;;;;;;33.00;8.50;;;6.70;99.90;;;;;;4990364;28;20615;-86
2024/02/02 04:12:12;;;;;;;26.17;9.93;;;6.70;99.90;;;;;;4991691;28;20797;-87
2024/02/02 04:14:38;;;;;;;25.23;8.40;;;6.70;99.90;;;;;;4990200;28;20720;-86
2024/02/02 04:17:03;;;;;;;28.10;9.17;;;6.70;99.90;;;;;;4989595;28;20234;-87
2024/02/02 04:19:29;;;;;;;28.53;9.37;;;6.70;1.00;;;;;;5006017;28;20216;-87
2024/02/02 04:21:55;;;;;;;22.33;8.63;;;6.70;1.00;;;;;;4992709;28;20681;-86
2024/02/02 04:24:20;;;;;;;24.10;8.07;;;6.70;1.00;;;;;;4985754;28;20177;-86
2024/02/02 04:26:46;;;;;;;29.50;9.03;;;6.60;85.90;;;;;;4988043;28;20596;-86
2024/02/02 04:29:12;;;;;;;32.27;10.83;;;6.60;99.90;;;;;;4990581;28;20215;-86
2024/02/02 04:31:37;;;;;;;28.40;8.90;;;6.60;99.90;;;;;;5004508;28;20239;-86
2024/02/02 04:34:03;;;;;;;33.93;9.10;;;6.60;99.90;;;;;;4988267;28;20204;-86
2024/02/02 04:36:30;;;;;;;26.43;8.77;;;6.60;99.90;;;;;;4992046;28;20701;-86
2024/02/02 04:38:55;;;;;;;34.75;10.48;;;6.60;99.90;;;;;;4989696;28;20228;-85
2024/02/02 04:41:21;;;;;;;26.47;10.63;;;6.50;99.90;;;;;;4984815;28;20208;-86
2024/02/02 04:43:47;;;;;;;25.60;8.33;;;6.50;99.90;;;;;;4990692;28;20184;-85
2024/02/02 04:46:12;;;;;;;27.73;9.00;;;6.50;99.90;;;;;;4991741;28;20180;-87
2024/02/02 04:48:38;;;;;;;32.73;8.70;;;6.50;1.00;;;;;;4990325;28;20219;-87
2024/02/02 04:51:04;;;;;;;23.73;9.43;;;6.50;1.00;;;;;;4991073;28;20184;-86
2024/02/02 04:53:29;;;;;;;32.80;8.60;;;6.40;1.00;;;;;;4991718;28;20180;-86
2024/02/02 04:55:55;;;;;;;30.43;8.40;;;6.50;1.00;;;;;;4984864;28;20195;-87
2024/02/02 04:58:20;;;;;;;23.37;9.27;;;6.50;1.00;;;;;;4991315;28;20603;-86
2024/02/02 05:00:46;;;;;;;17.53;7.20;;;6.50;1.00;;;;;;4989611;28;20184;-87
2024/02/02 05:03:12;;;;;;;25.80;9.07;;;6.50;1.00;;;;;;4989549;28;20629;-86
2024/02/02 05:05:37;;;;;;;30.10;9.53;;;6.50;99.90;;;;;;4987172;28;20189;-86
2024/02/02 05:08:04;;;;;;;28.00;9.70;;;6.50;99.90;;;;;;4989558;28;20215;-86
2024/02/02 05:10:29;;;;;;;26.13;9.70;;;6.50;99.90;;;;;;4987869;28;20998;-87
2024/02/02 05:12:55;;;;;;;22.80;8.27;;;6.50;99.90;;;;;;4990746;28;20184;-86
2024/02/02 05:15:20;;;;;;;21.57;7.50;;;6.40;99.90;;;;;;4970195;28;20185;-87
2024/02/02 05:17:46;;;;;;;25.53;7.43;;;6.40;99.90;;;;;;4989709;28;20212;-86
2024/02/02 05:20:12;;;;;;;28.07;9.10;;;6.40;99.90;;;;;;4992623;28;20662;-86
2024/02/02 05:22:39;;;;;;;29.50;8.52;;;6.40;99.90;;;;;;4992940;28;20188;-87
2024/02/02 05:25:07;;;;;;;19.88;8.52;;;6.40;99.90;;;;;;4990209;28;20223;-86
2024/02/02 05:27:32;;;;;;;26.23;8.15;;;6.30;99.90;;;;;;4992880;28;20678;-87
2024/02/02 05:29:59;;;;;;;21.60;7.27;;;6.30;99.90;;;;;;4993598;28;20188;-86
2024/02/02 05:32:25;;;;;;;29.88;8.07;;;6.30;99.90;;;;;;4992598;28;20991;-86
2024/02/02 05:34:50;;;;;;;22.93;6.87;;;6.30;99.90;;;;;;4993991;28;20184;-86
2024/02/02 05:37:17;;;;;;;22.93;7.70;;;6.20;99.90;;;;;;4993887;28;20564;-87
2024/02/02 05:39:42;;;;;;;18.20;7.90;;;6.30;99.90;;;;;;4988156;28;20295;-87
2024/02/02 05:42:08;;;;;;;23.77;7.10;;;6.20;99.90;;;;;;4993936;28;20267;-86
2024/02/02 05:44:33;;;;;;;19.43;6.97;;;6.20;99.90;;;;;;4994203;28;20184;-88
2024/02/02 05:46:59;;;;;;;13.60;6.40;;;6.30;99.90;;;;;;5004356;28;20219;-86
2024/02/02 05:49:25;;;;;;;25.13;7.40;;;6.30;51.10;;;;;;4994404;28;20295;-86
2024/02/02 05:51:51;;;;;;;27.60;7.00;;;6.30;1.00;;;;;;4995542;28;20267;-87
2024/02/02 05:54:16;;;;;;;26.20;7.13;;;6.30;1.00;;;;;;4993742;28;20176;-87
2024/02/02 05:56:42;;;;;;;29.70;6.63;;;6.30;99.90;;;;;;4997769;28;20552;-84
2024/02/02 05:59:08;;;;;;;22.97;6.40;;;6.30;99.90;;;;;;4995205;28;20204;-87
2024/02/02 06:01:33;;;;;;;15.63;6.40;;;6.30;99.90;;;;;;4994814;28;20215;-87
2024/02/02 06:03:59;;;;;;;20.93;7.23;;;6.30;99.90;;;;;;4990989;28;20193;-88
2024/02/02 06:06:24;;;;;;;19.80;7.17;;;6.30;8.80;;;;;;5005046;28;20258;-88
2024/02/02 06:08:50;;;;;;;18.83;6.47;;;6.20;1.00;;;;;;4995144;28;20258;-88
2024/02/02 06:11:16;;;;;;;30.17;7.20;;;6.20;1.00;;;;;;4993430;28;20630;-87
2024/02/02 06:13:41;;;;;;;18.33;5.77;;;6.20;1.00;;;;;;4994390;28;20180;-87
2024/02/02 06:16:08;;;;;;;12.47;4.70;;;6.20;1.00;;;;;;4993551;28;20176;-87
2024/02/02 06:18:35;;;;;;;18.80;6.70;;;6.20;1.00;;;;;;4994260;28;20619;-88
2024/02/02 06:21:01;;;;;;;23.70;5.63;;;6.20;99.90;;;;;;4984393;28;20185;-88
2024/02/02 06:23:26;;;;;;;21.40;6.77;;;6.20;99.90;;;;;;4988491;28;20612;-87
2024/02/02 06:25:52;;;;;;;23.30;5.60;;;6.20;99.90;;;;;;4991357;28;20242;-88
2024/02/02 06:28:17;;;;;;;19.20;5.37;;;6.20;1.00;;;;;;4993570;28;20242;-87
2024/02/02 06:30:48;;;;;;;21.93;4.87;;;6.20;1.00;;;;;;4994140;28;20180;-88
2024/02/02 06:33:15;;;;;;;13.73;4.97;;;6.20;1.00;;;;;;4994031;28;20188;-87
2024/02/02 06:35:42;;;;;;;23.63;6.18;;;6.20;99.90;;;;;;4994010;28;20195;-88
2024/02/02 06:38:07;;;;;;;17.73;6.28;;;6.10;43.10;;;;;;4989229;28;20220;-88
2024/02/02 06:40:33;;;;;;;11.70;5.10;;;6.10;1.00;;;;;;4988018;28;20180;-87
2024/02/02 06:42:58;;;;;;;19.97;5.50;;;6.10;1.00;;;;;;4991944;28;20192;-89
2024/02/02 06:45:24;;;;;;;16.00;6.33;;;6.10;99.90;;;;;;4986790;28;23951;-88
2024/02/02 06:47:49;;;;;;;17.43;6.23;;;6.10;99.90;;;;;;4980692;28;20223;-86
2024/02/02 06:50:15;;;;;;;22.10;7.00;;;6.10;99.90;;;;;;4989849;28;20204;-88
2024/02/02 06:52:40;;;;;;;12.23;5.00;;;6.10;1.00;;;;;;4981307;28;20212;-87
2024/02/02 06:55:07;;;;;;;16.93;5.80;;;6.10;99.90;;;;;;4990261;28;20191;-87
2024/02/02 06:57:32;;;;;;;16.23;4.78;;;6.20;94.90;;;;;;4993571;28;20267;-87
2024/02/02 07:00:00;;;;;;;17.80;5.40;;;6.20;1.00;;;;;;4991953;28;20271;-88
2024/02/02 07:02:32;;;;;;;9.13;4.78;;;6.20;99.90;;;;;;4980073;28;20191;-87
2024/02/02 07:04:58;;;;;;;9.95;4.82;;;6.30;99.90;;;;;;4988943;28;20243;-88
2024/02/02 07:07:24;;;;;;;14.30;4.30;;;6.30;1.00;;;;;;4990317;28;20724;-88
2024/02/02 07:09:51;;;;;;;14.57;5.13;;;6.30;99.90;;;;;;4982814;28;20207;-87
2024/02/02 07:12:47;;;;;;;13.25;4.00;;;6.30;99.90;;;;;;4991875;28;20444;-86
2024/02/02 07:15:38;;;;;;;15.23;4.88;;;6.40;99.90;;;;;;4987793;28;20184;-86
2024/02/02 07:18:05;;;;;;;10.48;3.92;;;6.50;1.00;;;;;;4980721;28;20651;-85
2024/02/02 07:20:32;;;;;;;23.45;4.65;;;6.60;1.00;;;;;;4987796;28;20266;-87
2024/02/02 07:23:01;;;;;;;8.45;3.55;;;6.60;1.00;;;;;;4992232;28;20722;-86
2024/02/02 07:25:27;;;;;;;21.70;4.50;;;6.70;99.90;;;;;;4985525;28;20191;-86
2024/02/02 07:27:56;;;;;;;13.02;3.47;;;6.70;99.90;;;;;;4993272;28;20748;-86
2024/02/02 07:30:40;;;;;;;11.10;4.40;;;6.80;99.90;;;;;;4990115;28;20188;-87
2024/02/02 07:33:26;;;;;;;10.85;4.30;;;6.90;99.90;;;;;;4989798;28;20271;-87
2024/02/02 07:35:53;;;;;;;18.38;4.82;;;6.90;99.90;;;;;;4993785;28;20234;-87
2024/02/02 07:38:43;;;;;;;11.80;3.65;;;7.00;4.60;;;;;;4988449;28;20227;-87
2024/02/02 07:41:14;;;;;;;13.40;4.47;;;7.20;1.00;;;;;;4990244;28;20195;-86
2024/02/02 07:43:40;;;;;;;11.43;3.10;;;7.40;1.00;;;;;;4993441;28;20623;-86
2024/02/02 07:46:06;;;;;;;10.93;3.60;;;7.50;1.00;;;;;;4992267;28;20558;-87
2024/02/02 07:48:34;;;;;;;12.03;4.40;;;7.60;1.00;;;;;;4992036;28;20597;-87
2024/02/02 07:50:59;;;;;;;9.83;3.60;;;7.80;1.00;;;;;;4992535;28;20454;-87
2024/02/02 07:53:25;;;;;;;11.80;3.17;;;7.90;1.00;;;;;;4992046;28;20435;-85
2024/02/02 07:55:51;;;;;;;8.23;3.50;;;8.00;1.00;;;;;;4992343;28;20184;-85
2024/02/02 07:58:20;;;;;;;14.70;3.97;;;8.20;1.00;;;;;;4985895;28;20208;-85
2024/02/02 08:00:46;;;;;;;11.97;4.30;;;8.40;1.00;;;;;;4992879;28;20995;-85
2024/02/02 08:03:12;;;;;;;7.93;3.30;;;8.70;1.00;;;;;;4989371;28;20443;-86
2024/02/02 08:05:38;;;;;;;16.50;3.40;;;9.30;1.00;;;;;;4991445;28;20431;-86
2024/02/02 08:08:04;;;;;;;18.30;4.77;;;10.30;99.90;;;;;;4989125;28;20219;-85
2024/02/02 08:10:29;;;;;;;17.50;4.83;;;10.90;99.90;;;;;;4991741;28;20431;-85
2024/02/02 08:12:55;;;;;;;11.40;4.50;;;10.90;99.90;;;;;;4987978;28;20432;-83
2024/02/02 08:15:21;;;;;;;16.83;4.40;;;10.80;99.90;;;;;;4993194;28;20401;-83
2024/02/02 08:17:46;;;;;;;12.17;3.63;;;11.10;99.90;;;;;;4997456;28;20438;-82
2024/02/02 08:20:13;;;;;;;9.67;3.60;;;11.90;99.90;;;;;;4996890;28;20192;-82
2024/02/02 08:22:38;;;;;;;13.00;3.63;;;13.00;99.90;;;;;;4993710;28;20554;-84
2024/02/02 08:25:04;;;;;;;12.27;3.97;;;13.90;99.90;;;;;;4994495;28;20433;-84
2024/02/02 08:27:29;;;;;;;9.57;3.50;;;13.80;99.90;;;;;;4987194;28;20208;-84
2024/02/02 08:29:55;;;;;;;14.13;3.63;;;13.60;99.90;;;;;;4994059;28;20176;-83
2024/02/02 08:32:21;;;;;;;10.90;3.40;;;13.40;99.90;;;;;;4992447;28;20234;-83
2024/02/02 08:34:46;;;;;;;10.07;3.33;;;13.40;99.90;;;;;;4994079;28;20255;-83
2024/02/02 08:37:12;;;;;;;16.23;4.03;;;13.40;99.90;;;;;;4993009;28;20184;-83
2024/02/02 08:39:37;;;;;;;12.17;3.93;;;13.30;99.90;;;;;;4993903;28;20622;-83
2024/02/02 08:42:14;;;;;;;12.30;3.93;;;13.20;99.90;;;;;;4994895;28;20199;-83
2024/02/02 08:44:39;;;;;;;7.80;3.70;;;13.20;99.90;;;;;;4985263;28;20199;-83
2024/02/02 08:47:06;;;;;;;13.93;4.40;;;13.20;99.90;;;;;;4993112;28;20423;-83
2024/02/02 08:49:55;;;;;;;13.87;3.40;;;13.10;99.90;;;;;;4990555;28;20211;-84
2024/02/02 08:52:35;;;;;;;9.63;3.67;;;13.00;99.90;;;;;;4992926;28;20438;-84
2024/02/02 08:55:04;;;;;;;9.23;3.80;;;12.90;99.90;;;;;;5002206;28;20484;-84
2024/02/02 08:57:49;;;;;;;12.13;3.93;;;12.90;99.90;;;;;;5004194;28;20427;-82
2024/02/02 09:00:30;;;;;;;9.93;3.30;;;12.80;99.90;;;;;;5003699;28;20439;-83
2024/02/02 09:03:04;;;;;;;9.23;3.17;;;13.00;99.90;;;;;;5005658;28;20444;-84
2024/02/02 09:05:48;;;;;;;9.40;3.60;;;13.30;99.90;;;;;;4987008;28;20689;-83
2024/02/02 09:08:23;;;;;;;12.37;3.87;;;14.00;99.90;;;;;;5013475;28;20513;-84
2024/02/02 09:10:54;;;;;;;12.20;3.60;;;14.60;99.90;;;;;;4999440;28;20462;-85
2024/02/02 09:13:24;;;;;;;12.27;3.37;;;14.90;99.90;;;;;;4994657;28;20893;-85
2024/02/02 09:15:50;;;;;;;12.80;4.40;;;15.00;99.90;;;;;;5002671;28;20423;-84
2024/02/02 09:18:29;;;;;;;14.83;4.30;;;14.90;99.90;;;;;;4998703;28;21241;-82
2024/02/02 09:20:55;;;;;;;16.47;3.77;;;14.80;99.90;;;;;;5001673;28;20447;-84
2024/02/02 09:23:20;;;;;;;12.70;3.80;;;14.60;99.90;;;;;;4992626;28;20458;-83
2024/02/02 09:25:47;;;;;;;13.60;3.87;;;14.30;99.90;;;;;;5003756;28;20184;-83
2024/02/02 09:28:24;;;;;;;10.27;3.40;;;14.30;99.90;;;;;;4998579;28;20746;-82
2024/02/02 09:31:01;;;;;;;12.00;3.60;;;14.20;99.90;;;;;;5003644;28;20426;-84
2024/02/02 09:33:33;;;;;;;10.97;4.30;;;14.10;99.90;;;;;;5003267;28;20486;-83
2024/02/02 09:36:01;;;;;;;17.20;4.10;;;14.10;99.90;;;;;;4999137;28;20499;-84
2024/02/02 09:38:27;;;;;;;12.10;3.63;;;14.10;99.90;;;;;;4998043;28;20470;-83
2024/02/02 09:41:13;;;;;;;11.53;3.80;;;14.10;99.90;;;;;;4989511;28;20439;-83
2024/02/02 09:43:57;;;;;;;12.47;3.73;;;14.00;99.90;;;;;;4983814;28;20465;-82
2024/02/02 09:46:43;;;;;;;14.20;3.60;;;14.20;99.90;;;;;;4991906;28;20443;-83
2024/02/02 09:49:22;;;;;;;12.83;4.70;;;14.10;99.90;;;;;;4994960;28;20474;-83
2024/02/02 09:52:12;;;;;;;16.53;4.43;;;13.90;99.90;;;;;;4995937;28;20414;-82
2024/02/02 09:55:15;;;;;;;9.30;3.00;;;13.80;99.90;;;;;;4992201;28;20577;-82
2024/02/02 09:57:49;;;;;;;13.30;3.60;;;13.90;99.90;;;;;;4995803;28;20481;-82
2024/02/02 10:00:45;;;;;;;13.20;4.10;;;14.10;99.90;;;;;;4997139;28;20423;-81
2024/02/02 10:03:13;;;;;;;14.60;4.30;;;14.20;99.90;;;;;;4995523;28;20473;-82
2024/02/02 10:06:20;;;;;;;11.37;3.80;;;14.10;99.90;;;;;;4987522;28;20462;-82
2024/02/02 10:09:16;;;;;;;17.53;4.43;;;13.90;99.90;;;;;;4993692;28;21022;-82
2024/02/02 10:12:02;;;;;;;9.20;3.93;;;14.00;99.90;;;;;;5004344;28;20426;-82
2024/02/02 10:14:55;;;;;;;13.87;4.20;;;13.80;99.90;;;;;;4996818;28;20430;-83
2024/02/02 10:17:28;;;;;;;11.83;3.97;;;13.60;99.90;;;;;;4998307;28;20526;-81
2024/02/02 10:19:56;;;;;;;15.07;4.50;;;13.60;99.90;;;;;;4996551;28;20452;-83
2024/02/02 10:22:47;;;;;;;10.43;3.77;;;13.50;99.90;;;;;;4997246;28;20423;-83
2024/02/02 10:25:40;;;;;;;8.60;2.97;;;13.40;99.90;;;;;;4997837;28;20416;-84
2024/02/02 10:28:14;;;;;;;12.93;3.77;;;13.40;99.90;;;;;;4996131;28;20463;-84
2024/02/02 10:30:49;;;;;;;7.90;3.70;;;13.40;99.90;;;;;;5002546;28;20426;-84
2024/02/02 10:33:27;;;;;;;9.90;4.00;;;13.40;99.90;;;;;;5003109;28;20819;-84
2024/02/02 10:36:17;;;;;;;13.53;4.40;;;13.30;99.90;;;;;;4997885;28;20843;-83
2024/02/02 10:39:15;;;;;;;11.10;4.27;;;13.40;99.90;;;;;;5002964;28;20971;-82
2024/02/02 10:41:52;;;;;;;12.33;5.10;;;13.30;99.90;;;;;;5001651;28;20419;-83
2024/02/02 10:44:44;;;;;;;17.57;6.00;;;13.10;99.90;;;;;;5001329;28;20433;-83
2024/02/02 10:47:29;;;;;;;16.77;5.10;;;13.10;99.90;;;;;;4992180;28;20428;-82
2024/02/02 10:50:23;;;;;;;16.13;5.33;;;13.00;99.90;;;;;;4993496;28;20523;-83
2024/02/02 10:53:28;;;;;;;15.33;4.63;;;12.80;99.90;;;;;;4992796;28;20426;-84
2024/02/02 10:56:14;;;;;;;9.60;4.63;;;12.80;99.90;;;;;;4989854;28;20457;-83
2024/02/02 10:59:06;;;;;;;9.23;4.50;;;12.70;99.90;;;;;;5000800;28;20561;-83
2024/02/02 11:02:06;;;;;;;11.40;3.97;;;12.60;99.90;;;;;;4999023;28;20419;-84
2024/02/02 11:04:57;;;;;;;11.77;4.80;;;12.80;99.90;;;;;;4998941;28;20807;-82
2024/02/02 11:07:28;;;;;;;12.13;5.20;;;12.90;99.90;;;;;;5001328;28;20422;-81
2024/02/02 11:10:03;;;;;;;9.83;4.10;;;12.90;99.90;;;;;;4994086;28;20440;-80
2024/02/02 11:12:52;;;;;;;12.50;5.00;;;13.00;99.90;;;;;;4990494;28;20558;-83
2024/02/02 11:15:43;;;;;;;11.73;4.40;;;13.20;99.90;;;;;;4995157;28;20419;-83
2024/02/02 11:18:33;;;;;;;11.37;5.07;;;13.50;99.90;;;;;;4992491;28;20469;-82
2024/02/02 11:21:13;;;;;;;13.80;5.33;;;13.80;99.90;;;;;;4996089;28;20427;-83
2024/02/02 11:24:14;;;;;;;11.57;4.70;;;14.50;99.90;;;;;;4994449;28;20531;-83
2024/02/02 11:26:58;;;;;;;11.83;5.20;;;15.00;99.90;;;;;;4941091;28;20446;-82
2024/02/02 11:29:51;;;;;;;10.90;5.07;;;15.90;99.90;;;;;;4984617;28;20482;-83
2024/02/02 11:32:35;;;;;;;13.50;5.23;;;16.50;99.90;;;;;;4989826;28;20502;-84
2024/02/02 11:35:14;;;;;;;14.27;5.60;;;16.70;99.90;;;;;;4989244;28;20419;-84
2024/02/02 11:37:51;;;;;;;13.60;6.20;;;16.70;99.90;;;;;;4993783;28;20451;-84
2024/02/02 11:40:20;;;;;;;11.40;5.97;;;16.80;99.90;;;;;;4986839;28;20423;-83
2024/02/02 11:42:47;;;;;;;10.03;4.83;;;16.80;99.90;;;;;;4994250;28;20419;-83
2024/02/02 11:45:21;;;;;;;12.40;5.90;;;17.20;99.90;;;;;;4990863;28;21221;-82
2024/02/02 11:47:52;;;;;;;16.87;6.10;;;17.40;99.90;;;;;;4994319;28;20486;-83
2024/02/02 11:50:22;;;;;;;10.40;4.57;;;17.60;99.90;;;;;;4994612;28;20426;-83
2024/02/02 11:52:54;;;;;;;12.97;6.00;;;17.60;99.90;;;;;;4993550;28;20860;-83
2024/02/02 11:55:32;;;;;;;15.70;6.60;;;17.70;99.90;;;;;;4995044;28;20510;-82
2024/02/02 11:58:02;;;;;;;22.67;6.03;;;17.40;99.90;;;;;;5004320;28;20859;-83
2024/02/02 12:00:34;;;;;;;13.67;5.37;;;17.00;99.90;;;;;;5001516;28;20445;-83
2024/02/02 12:03:40;;;;;;;12.43;5.60;;;17.00;99.90;;;;;;5001507;28;20431;-84
2024/02/02 12:06:15;;;;;;;13.53;6.17;;;17.00;99.90;;;;;;4996205;28;20492;-83
2024/02/02 12:08:41;;;;;;;11.00;5.90;;;16.60;99.90;;;;;;5000570;28;20995;-83
2024/02/02 12:11:09;;;;;;;11.73;5.00;;;16.30;99.90;;;;;;5001644;28;20430;-84
2024/02/02 12:13:39;;;;;;;12.10;5.20;;;15.70;99.90;;;;;;5000424;28;20188;-84
2024/02/02 12:16:06;;;;;;;7.10;5.20;;;15.30;99.90;;;;;;5001027;28;20851;-84
2024/02/02 12:18:32;;;;;;;21.27;7.10;;;15.00;99.90;;;;;;5000172;28;20952;-82
2024/02/02 12:20:59;;;;;;;13.73;6.80;;;14.40;99.90;;;;;;5001694;28;20450;-83
2024/02/02 12:23:25;;;;;;;12.23;6.37;;;13.90;99.90;;;;;;4995805;28;20575;-84
2024/02/02 12:25:51;;;;;;;10.87;6.03;;;13.50;99.90;;;;;;4999998;28;20461;-83
2024/02/02 12:28:17;;;;;;;12.77;6.97;;;13.20;99.90;;;;;;4994122;28;20506;-83
2024/02/02 12:30:42;;;;;;;12.03;5.53;;;13.10;99.90;;;;;;4999311;28;20435;-84
2024/02/02 12:33:08;;;;;;;19.60;6.57;;;13.00;99.90;;;;;;5001789;28;20197;-84
2024/02/02 12:35:33;;;;;;;10.27;5.77;;;13.00;99.90;;;;;;5000930;28;20172;-84
2024/02/02 12:37:59;;;;;;;14.90;6.50;;;13.10;99.90;;;;;;4997951;28;20251;-83
2024/02/02 12:40:25;;;;;;;18.93;8.73;;;13.10;99.90;;;;;;4997863;28;20564;-84
2024/02/02 12:42:52;;;;;;;14.83;7.67;;;12.80;99.90;;;;;;4996169;28;20246;-84
2024/02/02 12:45:18;;;;;;;13.83;6.40;;;12.50;99.90;;;;;;4986897;28;20537;-83
2024/02/02 12:47:49;;;;;;;15.70;6.57;;;12.30;1.00;;;;;;4991564;28;20477;-82
2024/02/02 12:50:17;;;;;;;8.90;5.30;;;12.10;1.00;;;;;;4993513;28;20824;-83
2024/02/02 12:52:44;;;;;;;13.80;6.33;;;12.00;1.00;;;;;;4989395;28;20445;-83
2024/02/02 12:55:11;;;;;;;11.00;6.30;;;11.90;1.00;;;;;;4994257;28;20454;-83
2024/02/02 12:57:36;;;;;;;10.17;6.83;;;11.90;1.00;;;;;;4992983;28;21103;-83
2024/02/02 13:00:03;;;;;;;12.23;5.80;;;11.90;1.00;;;;;;4997015;28;20527;-82
2024/02/02 13:02:29;;;;;;;10.27;6.67;;;11.90;1.00;;;;;;4995758;28;20263;-84